sensor_id;sensor_type;location;lat;lon;timestamp;pressure;altitude;pressure_sealevel;temperature;humidity
52745;BME280;38637;49.984;20.426;2023-03-03T00:02:01;99610.16;;;-1.47;78.30
52745;BME280;38637;49.984;20.426;2023-03-03T00:04:27;99598.19;;;-1.59;78.33
52745;BME280;38637;49.984;20.426;2023-03-03T00:06:52;99615.66;;;-1.48;78.25
52745;BME280;38637;49.984;20.426;2023-03-03T00:09:17;99613.19;;;-1.50;78.98
52745;BME280;38637;49.984;20.426;2023-03-03T00:11:43;99624.53;;;-1.48;78.33
52745;BME280;38637;49.984;20.426;2023-03-03T00:14:21;99615.31;;;-1.45;78.55
52745;BME280;38637;49.984;20.426;2023-03-03T00:16:47;99611.13;;;-1.48;78.36
52745;BME280;38637;49.984;20.426;2023-03-03T00:19:16;99620.34;;;-1.50;78.65
52745;BME280;38637;49.984;20.426;2023-03-03T00:21:47;99612.31;;;-1.50;78.57
52745;BME280;38637;49.984;20.426;2023-03-03T00:26:39;99614.41;;;-1.60;78.71
52745;BME280;38637;49.984;20.426;2023-03-03T00:34:40;99596.69;;;-1.62;78.09
52745;BME280;38637;49.984;20.426;2023-03-03T00:37:32;99597.50;;;-1.61;78.66
52745;BME280;38637;49.984;20.426;2023-03-03T00:40:51;99598.19;;;-1.59;78.23
52745;BME280;38637;49.984;20.426;2023-03-03T00:43:23;99598.88;;;-1.65;78.00
52745;BME280;38637;49.984;20.426;2023-03-03T00:45:51;99591.38;;;-1.70;78.49
52745;BME280;38637;49.984;20.426;2023-03-03T00:48:24;99584.72;;;-1.74;77.66
52745;BME280;38637;49.984;20.426;2023-03-03T00:50:52;99581.22;;;-1.74;77.70
52745;BME280;38637;49.984;20.426;2023-03-03T00:53:19;99579.16;;;-1.72;78.04
52745;BME280;38637;49.984;20.426;2023-03-03T00:55:47;99585.72;;;-1.75;77.79
52745;BME280;38637;49.984;20.426;2023-03-03T00:58:13;99559.38;;;-1.86;78.05
52745;BME280;38637;49.984;20.426;2023-03-03T01:00:39;99578.22;;;-1.79;78.05
52745;BME280;38637;49.984;20.426;2023-03-03T01:03:09;99570.00;;;-1.78;78.25
52745;BME280;38637;49.984;20.426;2023-03-03T01:05:36;99572.31;;;-1.75;77.79
52745;BME280;38637;49.984;20.426;2023-03-03T01:08:02;99564.50;;;-1.76;77.99
52745;BME280;38637;49.984;20.426;2023-03-03T01:10:30;99568.66;;;-1.74;78.16
52745;BME280;38637;49.984;20.426;2023-03-03T01:12:57;99572.31;;;-1.75;78.35
52745;BME280;38637;49.984;20.426;2023-03-03T01:15:23;99569.84;;;-1.76;78.95
52745;BME280;38637;49.984;20.426;2023-03-03T01:17:48;99561.34;;;-1.80;78.56
52745;BME280;38637;49.984;20.426;2023-03-03T01:20:14;99564.66;;;-1.78;78.90
52745;BME280;38637;49.984;20.426;2023-03-03T01:22:40;99561.81;;;-1.76;79.04
52745;BME280;38637;49.984;20.426;2023-03-03T01:25:06;99563.47;;;-1.75;78.23
52745;BME280;38637;49.984;20.426;2023-03-03T01:27:34;99569.84;;;-1.76;78.20
52745;BME280;38637;49.984;20.426;2023-03-03T01:29:59;99565.72;;;-1.87;78.37
52745;BME280;38637;49.984;20.426;2023-03-03T01:32:25;99562.53;;;-1.82;79.05
52745;BME280;38637;49.984;20.426;2023-03-03T01:34:51;99568.94;;;-1.92;78.79
52745;BME280;38637;49.984;20.426;2023-03-03T01:37:18;99570.31;;;-1.96;78.83
52745;BME280;38637;49.984;20.426;2023-03-03T01:39:48;99577.69;;;-2.06;78.49
52745;BME280;38637;49.984;20.426;2023-03-03T01:42:13;99571.50;;;-2.06;77.79
52745;BME280;38637;49.984;20.426;2023-03-03T01:44:40;99575.56;;;-2.11;77.97
52745;BME280;38637;49.984;20.426;2023-03-03T01:49:39;99570.84;;;-2.09;77.85
52745;BME280;38637;49.984;20.426;2023-03-03T01:55:11;99581.03;;;-2.04;78.69
52745;BME280;38637;49.984;20.426;2023-03-03T01:57:40;99575.69;;;-2.04;78.67
52745;BME280;38637;49.984;20.426;2023-03-03T02:00:09;99581.72;;;-2.02;78.34
52745;BME280;38637;49.984;20.426;2023-03-03T02:02:35;99580.22;;;-2.04;78.08
52745;BME280;38637;49.984;20.426;2023-03-03T02:05:01;99573.72;;;-2.10;78.48
52745;BME280;38637;49.984;20.426;2023-03-03T02:07:27;99572.88;;;-2.11;77.79
52745;BME280;38637;49.984;20.426;2023-03-03T02:10:10;99572.34;;;-2.06;78.29
52745;BME280;38637;49.984;20.426;2023-03-03T02:12:40;99586.06;;;-2.09;78.19
52745;BME280;38637;49.984;20.426;2023-03-03T02:15:27;99576.03;;;-2.07;77.36
52745;BME280;38637;49.984;20.426;2023-03-03T02:17:55;99577.22;;;-2.10;77.48
52745;BME280;38637;49.984;20.426;2023-03-03T02:22:59;99579.06;;;-2.10;77.54
52745;BME280;38637;49.984;20.426;2023-03-03T02:28:03;99574.06;;;-2.13;77.21
52745;BME280;38637;49.984;20.426;2023-03-03T02:30:29;99565.09;;;-2.20;76.98
52745;BME280;38637;49.984;20.426;2023-03-03T02:32:54;99566.91;;;-2.21;77.08
52745;BME280;38637;49.984;20.426;2023-03-03T02:35:29;99571.25;;;-2.20;77.17
52745;BME280;38637;49.984;20.426;2023-03-03T02:37:58;99568.94;;;-2.23;77.37
52745;BME280;38637;49.984;20.426;2023-03-03T02:40:27;99565.59;;;-2.25;76.66
52745;BME280;38637;49.984;20.426;2023-03-03T02:42:57;99561.06;;;-2.24;77.11
52745;BME280;38637;49.984;20.426;2023-03-03T02:45:22;99567.44;;;-2.25;76.89
52745;BME280;38637;49.984;20.426;2023-03-03T02:47:49;99565.78;;;-2.26;77.21
52745;BME280;38637;49.984;20.426;2023-03-03T02:50:15;99562.78;;;-2.32;78.07
52745;BME280;38637;49.984;20.426;2023-03-03T02:52:40;99568.81;;;-2.29;78.72
52745;BME280;38637;49.984;20.426;2023-03-03T02:55:06;99569.16;;;-2.33;78.34
52745;BME280;38637;49.984;20.426;2023-03-03T02:57:31;99553.44;;;-2.36;77.66
52745;BME280;38637;49.984;20.426;2023-03-03T02:59:57;99555.09;;;-2.35;77.72
52745;BME280;38637;49.984;20.426;2023-03-03T03:02:22;99567.31;;;-2.40;77.54
52745;BME280;38637;49.984;20.426;2023-03-03T03:04:47;99556.97;;;-2.43;76.66
52745;BME280;38637;49.984;20.426;2023-03-03T03:07:13;99549.31;;;-2.55;76.35
52745;BME280;38637;49.984;20.426;2023-03-03T03:09:38;99558.84;;;-2.52;76.08
52745;BME280;38637;49.984;20.426;2023-03-03T03:12:04;99557.19;;;-2.53;76.51
52745;BME280;38637;49.984;20.426;2023-03-03T03:14:29;99564.19;;;-2.52;76.73
52745;BME280;38637;49.984;20.426;2023-03-03T03:16:54;99557.19;;;-2.53;76.40
52745;BME280;38637;49.984;20.426;2023-03-03T03:19:20;99560.34;;;-2.49;76.68
52745;BME280;38637;49.984;20.426;2023-03-03T03:21:45;99562.19;;;-2.50;76.66
52745;BME280;38637;49.984;20.426;2023-03-03T03:24:10;99558.00;;;-2.52;77.18
52745;BME280;38637;49.984;20.426;2023-03-03T03:26:36;99552.66;;;-2.52;76.74
52745;BME280;38637;49.984;20.426;2023-03-03T03:29:01;99548.69;;;-2.57;76.41
52745;BME280;38637;49.984;20.426;2023-03-03T03:31:26;99552.84;;;-2.54;76.49
52745;BME280;38637;49.984;20.426;2023-03-03T03:33:52;99547.84;;;-2.57;76.27
52745;BME280;38637;49.984;20.426;2023-03-03T03:36:17;99556.84;;;-2.58;76.21
52745;BME280;38637;49.984;20.426;2023-03-03T03:38:43;99558.53;;;-2.57;76.54
52745;BME280;38637;49.984;20.426;2023-03-03T03:41:10;99546.84;;;-2.56;76.89
52745;BME280;38637;49.984;20.426;2023-03-03T03:43:35;99562.03;;;-2.57;76.88
52745;BME280;38637;49.984;20.426;2023-03-03T03:46:00;99545.69;;;-2.62;77.09
52745;BME280;38637;49.984;20.426;2023-03-03T03:48:26;99552.88;;;-2.62;77.15
52745;BME280;38637;49.984;20.426;2023-03-03T03:50:51;99557.06;;;-2.68;78.28
52745;BME280;38637;49.984;20.426;2023-03-03T03:53:17;99539.38;;;-2.77;78.98
52745;BME280;38637;49.984;20.426;2023-03-03T03:55:43;99542.53;;;-2.73;79.07
52745;BME280;38637;49.984;20.426;2023-03-03T03:58:16;99541.53;;;-2.72;78.97
52745;BME280;38637;49.984;20.426;2023-03-03T04:00:42;99549.03;;;-2.68;78.57
52745;BME280;38637;49.984;20.426;2023-03-03T04:03:08;99544.72;;;-2.69;78.24
52745;BME280;38637;49.984;20.426;2023-03-03T04:05:36;99549.53;;;-2.72;78.68
52745;BME280;38637;49.984;20.426;2023-03-03T04:08:02;99548.91;;;-2.74;78.05
52745;BME280;38637;49.984;20.426;2023-03-03T04:10:27;99548.91;;;-2.74;77.56
52745;BME280;38637;49.984;20.426;2023-03-03T04:12:52;99558.91;;;-2.77;77.35
52745;BME280;38637;49.984;20.426;2023-03-03T04:15:18;99556.25;;;-2.77;76.99
52745;BME280;38637;49.984;20.426;2023-03-03T04:17:43;99555.75;;;-2.80;76.97
52745;BME280;38637;49.984;20.426;2023-03-03T04:20:12;99553.25;;;-2.82;76.96
52745;BME280;38637;49.984;20.426;2023-03-03T04:22:37;99554.44;;;-2.84;77.24
52745;BME280;38637;49.984;20.426;2023-03-03T04:25:03;99539.44;;;-2.93;76.58
52745;BME280;38637;49.984;20.426;2023-03-03T04:27:33;99557.94;;;-2.84;76.71
52745;BME280;38637;49.984;20.426;2023-03-03T04:29:59;99553.25;;;-2.82;77.04
52745;BME280;38637;49.984;20.426;2023-03-03T04:32:25;99541.91;;;-2.84;76.59
52745;BME280;38637;49.984;20.426;2023-03-03T04:34:51;99549.59;;;-2.81;76.69
52745;BME280;38637;49.984;20.426;2023-03-03T04:37:16;99544.06;;;-2.79;76.87
52745;BME280;38637;49.984;20.426;2023-03-03T04:39:42;99547.06;;;-2.74;76.59
52745;BME280;38637;49.984;20.426;2023-03-03T04:42:07;99550.06;;;-2.69;77.30
52745;BME280;38637;49.984;20.426;2023-03-03T04:44:32;99548.34;;;-2.62;77.68
52745;BME280;38637;49.984;20.426;2023-03-03T04:46:58;99549.84;;;-2.51;77.24
52745;BME280;38637;49.984;20.426;2023-03-03T04:49:23;99540.09;;;-2.44;77.32
52745;BME280;38637;49.984;20.426;2023-03-03T04:51:49;99552.59;;;-2.36;77.05
52745;BME280;38637;49.984;20.426;2023-03-03T04:54:14;99549.41;;;-2.32;76.29
52745;BME280;38637;49.984;20.426;2023-03-03T04:56:39;99541.50;;;-2.25;76.30
52745;BME280;38637;49.984;20.426;2023-03-03T04:59:05;99551.72;;;-2.20;76.15
52745;BME280;38637;49.984;20.426;2023-03-03T05:01:30;99551.00;;;-2.14;76.14
52745;BME280;38637;49.984;20.426;2023-03-03T05:03:55;99556.47;;;-2.08;76.05
52745;BME280;38637;49.984;20.426;2023-03-03T05:06:21;99547.56;;;-2.00;76.35
52745;BME280;38637;49.984;20.426;2023-03-03T05:08:46;99553.91;;;-1.93;76.11
52745;BME280;38637;49.984;20.426;2023-03-03T05:11:11;99537.84;;;-1.93;76.42
52745;BME280;38637;49.984;20.426;2023-03-03T05:13:38;99553.47;;;-1.81;76.53
52745;BME280;38637;49.984;20.426;2023-03-03T05:16:04;99557.16;;;-1.82;76.26
52745;BME280;38637;49.984;20.426;2023-03-03T05:18:29;99545.63;;;-1.83;77.00
52745;BME280;38637;49.984;20.426;2023-03-03T05:20:55;99552.63;;;-1.82;77.12
52745;BME280;38637;49.984;20.426;2023-03-03T05:23:20;99547.13;;;-1.80;77.50
52745;BME280;38637;49.984;20.426;2023-03-03T05:25:46;99552.13;;;-1.77;77.66
52745;BME280;38637;49.984;20.426;2023-03-03T05:28:12;99551.09;;;-1.76;77.51
52745;BME280;38637;49.984;20.426;2023-03-03T05:30:37;99556.09;;;-1.73;77.76
52745;BME280;38637;49.984;20.426;2023-03-03T05:33:03;99563.41;;;-1.67;78.33
52745;BME280;38637;49.984;20.426;2023-03-03T05:35:30;99555.34;;;-1.59;78.03
52745;BME280;38637;49.984;20.426;2023-03-03T05:37:55;99567.00;;;-1.52;78.07
52745;BME280;38637;49.984;20.426;2023-03-03T05:40:22;99563.41;;;-1.44;78.61
52745;BME280;38637;49.984;20.426;2023-03-03T05:42:47;99575.09;;;-1.37;78.58
52745;BME280;38637;49.984;20.426;2023-03-03T05:45:13;99570.00;;;-1.32;78.60
52745;BME280;38637;49.984;20.426;2023-03-03T05:47:38;99570.00;;;-1.32;78.51
52745;BME280;38637;49.984;20.426;2023-03-03T05:50:04;99570.31;;;-1.27;78.60
52745;BME280;38637;49.984;20.426;2023-03-03T05:52:29;99581.50;;;-1.23;79.10
52745;BME280;38637;49.984;20.426;2023-03-03T05:54:55;99570.78;;;-1.23;79.11
52745;BME280;38637;49.984;20.426;2023-03-03T05:57:20;99583.56;;;-1.10;78.85
52745;BME280;38637;49.984;20.426;2023-03-03T05:59:46;99578.69;;;-1.07;79.31
52745;BME280;38637;49.984;20.426;2023-03-03T06:02:11;99578.97;;;-1.02;79.90
52745;BME280;38637;49.984;20.426;2023-03-03T06:04:36;99579.91;;;-0.95;79.54
52745;BME280;38637;49.984;20.426;2023-03-03T06:07:02;99535.78;;;-1.22;80.02
52745;BME280;38637;49.984;20.426;2023-03-03T06:09:27;99593.31;;;-0.80;79.43
52745;BME280;38637;49.984;20.426;2023-03-03T06:11:53;99585.09;;;-0.78;80.00
52745;BME280;38637;49.984;20.426;2023-03-03T06:14:19;99588.34;;;-0.68;79.82
52745;BME280;38637;49.984;20.426;2023-03-03T06:16:45;99591.78;;;-0.59;79.79
52745;BME280;38637;49.984;20.426;2023-03-03T06:19:11;99593.19;;;-0.49;79.87
52745;BME280;38637;49.984;20.426;2023-03-03T06:21:37;99597.06;;;-0.36;79.35
52745;BME280;38637;49.984;20.426;2023-03-03T06:24:02;99607.06;;;-0.30;79.48
52745;BME280;38637;49.984;20.426;2023-03-03T06:26:27;99605.28;;;-0.23;79.37
52745;BME280;38637;49.984;20.426;2023-03-03T06:28:53;99602.69;;;-0.16;79.18
52745;BME280;38637;49.984;20.426;2023-03-03T06:31:19;99610.81;;;-0.10;79.00
52745;BME280;38637;49.984;20.426;2023-03-03T06:33:45;99616.28;;;-0.03;79.27
52745;BME280;38637;49.984;20.426;2023-03-03T06:36:10;99611.09;;;0.10;79.47
52745;BME280;38637;49.984;20.426;2023-03-03T06:38:36;99602.06;;;0.18;79.19
52745;BME280;38637;49.984;20.426;2023-03-03T06:41:02;99594.94;;;0.25;79.40
52745;BME280;38637;49.984;20.426;2023-03-03T06:43:31;99599.56;;;0.31;79.16
52745;BME280;38637;49.984;20.426;2023-03-03T06:45:57;99598.81;;;0.37;79.28
52745;BME280;38637;49.984;20.426;2023-03-03T06:48:22;99607.09;;;0.42;78.98
52745;BME280;38637;49.984;20.426;2023-03-03T06:50:47;99600.72;;;0.43;79.69
52745;BME280;38637;49.984;20.426;2023-03-03T06:53:14;99605.06;;;0.44;79.94
52745;BME280;38637;49.984;20.426;2023-03-03T06:55:40;99598.94;;;0.51;80.05
52745;BME280;38637;49.984;20.426;2023-03-03T06:58:19;99599.44;;;0.61;79.99
52745;BME280;38637;49.984;20.426;2023-03-03T07:00:56;99593.94;;;0.69;80.25
52745;BME280;38637;49.984;20.426;2023-03-03T07:03:24;99589.00;;;0.73;80.69
52745;BME280;38637;49.984;20.426;2023-03-03T07:05:51;99593.44;;;0.80;80.53
52745;BME280;38637;49.984;20.426;2023-03-03T07:08:20;99590.81;;;0.87;80.85
52745;BME280;38637;49.984;20.426;2023-03-03T07:10:47;99590.94;;;0.79;81.80
52745;BME280;38637;49.984;20.426;2023-03-03T07:13:22;99590.50;;;0.75;82.59
52745;BME280;38637;49.984;20.426;2023-03-03T07:15:50;99596.31;;;0.79;82.38
52745;BME280;38637;49.984;20.426;2023-03-03T07:18:36;99598.88;;;0.87;82.62
52745;BME280;38637;49.984;20.426;2023-03-03T07:21:17;99597.13;;;1.01;82.31
52745;BME280;38637;49.984;20.426;2023-03-03T07:23:45;99598.06;;;1.14;81.87
52745;BME280;38637;49.984;20.426;2023-03-03T07:26:13;99583.25;;;1.25;81.66
52745;BME280;38637;49.984;20.426;2023-03-03T07:28:43;99570.03;;;1.30;81.86
52745;BME280;38637;49.984;20.426;2023-03-03T07:31:28;99589.06;;;1.57;80.94
52745;BME280;38637;49.984;20.426;2023-03-03T07:33:54;99583.97;;;1.75;80.51
52745;BME280;38637;49.984;20.426;2023-03-03T07:36:34;99585.25;;;1.86;80.19
52745;BME280;38637;49.984;20.426;2023-03-03T07:39:02;99577.84;;;1.95;80.29
52745;BME280;38637;49.984;20.426;2023-03-03T07:41:30;99587.22;;;2.05;80.10
52745;BME280;38637;49.984;20.426;2023-03-03T07:44:33;99582.28;;;2.09;79.76
52745;BME280;38637;49.984;20.426;2023-03-03T07:46:50;99574.59;;;2.06;80.15
52745;BME280;38637;49.984;20.426;2023-03-03T07:51:47;99546.56;;;1.94;79.98
52745;BME280;38637;49.984;20.426;2023-03-03T07:54:35;99539.09;;;1.96;79.92
52745;BME280;38637;49.984;20.426;2023-03-03T07:57:13;99554.06;;;2.05;80.19
52745;BME280;38637;49.984;20.426;2023-03-03T07:59:46;99547.50;;;2.21;79.81
52745;BME280;38637;49.984;20.426;2023-03-03T08:04:53;99569.97;;;2.68;79.20
52745;BME280;38637;49.984;20.426;2023-03-03T08:07:21;99558.59;;;2.72;78.92
52745;BME280;38637;49.984;20.426;2023-03-03T08:12:23;99558.59;;;2.72;78.73
52745;BME280;38637;49.984;20.426;2023-03-03T08:14:53;99564.41;;;2.83;78.29
52745;BME280;38637;49.984;20.426;2023-03-03T08:17:23;99564.38;;;2.96;78.12
52745;BME280;38637;49.984;20.426;2023-03-03T08:19:52;99566.69;;;2.99;77.95
52745;BME280;38637;49.984;20.426;2023-03-03T08:22:33;99567.09;;;2.89;77.57
52745;BME280;38637;49.984;20.426;2023-03-03T08:25:02;99553.00;;;3.07;76.62
52745;BME280;38637;49.984;20.426;2023-03-03T08:27:28;99560.22;;;3.27;76.78
52745;BME280;38637;49.984;20.426;2023-03-03T08:29:53;99515.59;;;3.17;76.23
52745;BME280;38637;49.984;20.426;2023-03-03T08:32:18;99570.34;;;3.51;75.92
52745;BME280;38637;49.984;20.426;2023-03-03T08:34:44;99580.31;;;3.57;75.26
52745;BME280;38637;49.984;20.426;2023-03-03T08:37:09;99566.00;;;3.57;75.35
52745;BME280;38637;49.984;20.426;2023-03-03T08:39:34;99578.25;;;3.39;75.39
52745;BME280;38637;49.984;20.426;2023-03-03T08:42:00;99569.16;;;3.14;76.23
52745;BME280;38637;49.984;20.426;2023-03-03T08:44:25;99583.69;;;2.86;77.66
52745;BME280;38637;49.984;20.426;2023-03-03T08:46:50;99583.69;;;2.93;77.57
52745;BME280;38637;49.984;20.426;2023-03-03T08:49:16;99581.41;;;2.96;76.42
52745;BME280;38637;49.984;20.426;2023-03-03T08:51:41;99577.69;;;3.31;76.41
52745;BME280;38637;49.984;20.426;2023-03-03T08:54:07;99570.97;;;3.60;74.70
52745;BME280;38637;49.984;20.426;2023-03-03T08:56:32;99571.78;;;3.74;74.45
52745;BME280;38637;49.984;20.426;2023-03-03T08:58:57;99571.50;;;3.88;73.40
52745;BME280;38637;49.984;20.426;2023-03-03T09:01:23;99564.53;;;4.12;72.25
52745;BME280;38637;49.984;20.426;2023-03-03T09:03:48;99566.53;;;4.30;72.61
52745;BME280;38637;49.984;20.426;2023-03-03T09:06:13;99562.66;;;4.20;72.01
52745;BME280;38637;49.984;20.426;2023-03-03T09:08:39;99563.97;;;4.04;72.77
52745;BME280;38637;49.984;20.426;2023-03-03T09:11:20;99576.69;;;3.90;72.64
52745;BME280;38637;49.984;20.426;2023-03-03T09:13:48;99582.75;;;3.79;73.07
52745;BME280;38637;49.984;20.426;2023-03-03T09:16:17;99580.88;;;3.79;72.87
52745;BME280;38637;49.984;20.426;2023-03-03T09:18:43;99580.63;;;3.94;73.09
52745;BME280;38637;49.984;20.426;2023-03-03T09:21:21;99573.97;;;3.97;73.22
52745;BME280;38637;49.984;20.426;2023-03-03T09:23:53;99579.50;;;4.15;72.62
52745;BME280;38637;49.984;20.426;2023-03-03T09:26:28;99582.56;;;4.25;71.75
52745;BME280;38637;49.984;20.426;2023-03-03T09:29:22;99584.66;;;4.30;71.91
52745;BME280;38637;49.984;20.426;2023-03-03T09:31:53;99583.31;;;4.46;72.16
52745;BME280;38637;49.984;20.426;2023-03-03T09:34:23;99567.63;;;4.61;71.44
52745;BME280;38637;49.984;20.426;2023-03-03T09:36:53;99580.59;;;4.77;70.97
52745;BME280;38637;49.984;20.426;2023-03-03T09:39:24;99567.25;;;4.82;70.57
52745;BME280;38637;49.984;20.426;2023-03-03T09:50:31;99569.03;;;4.95;70.11
52745;BME280;38637;49.984;20.426;2023-03-03T09:55:49;99581.69;;;5.01;70.35
52745;BME280;38637;49.984;20.426;2023-03-03T09:58:26;99573.31;;;5.10;70.85
52745;BME280;38637;49.984;20.426;2023-03-03T10:10:10;99568.28;;;5.57;69.97
52745;BME280;38637;49.984;20.426;2023-03-03T10:15:35;99570.41;;;5.73;68.81
52745;BME280;38637;49.984;20.426;2023-03-03T10:20:59;99576.38;;;4.88;70.25
52745;BME280;38637;49.984;20.426;2023-03-03T10:26:44;99582.41;;;4.90;71.32
52745;BME280;38637;49.984;20.426;2023-03-03T10:29:23;99592.25;;;5.10;70.69
52745;BME280;38637;49.984;20.426;2023-03-03T10:32:05;99591.31;;;4.97;70.17
52745;BME280;38637;49.984;20.426;2023-03-03T10:38:10;99587.50;;;4.73;71.18
52745;BME280;38637;49.984;20.426;2023-03-03T10:41:28;99574.22;;;4.65;69.40
52745;BME280;38637;49.984;20.426;2023-03-03T10:52:54;99583.81;;;4.93;67.98
52745;BME280;38637;49.984;20.426;2023-03-03T11:05:26;99581.81;;;4.50;68.17
52745;BME280;38637;49.984;20.426;2023-03-03T11:08:10;99588.09;;;4.44;69.12
52745;BME280;38637;49.984;20.426;2023-03-03T11:13:23;99592.13;;;4.28;69.64
52745;BME280;38637;49.984;20.426;2023-03-03T11:26:40;99593.72;;;3.97;71.46
52745;BME280;38637;49.984;20.426;2023-03-03T11:32:15;99588.47;;;4.09;71.58
52745;BME280;38637;49.984;20.426;2023-03-03T11:34:52;99590.81;;;3.99;70.90
52745;BME280;38637;49.984;20.426;2023-03-03T11:40:31;99579.19;;;3.85;72.48
52745;BME280;38637;49.984;20.426;2023-03-03T11:43:09;99583.97;;;3.89;73.25
52745;BME280;38637;49.984;20.426;2023-03-03T11:45:48;99583.53;;;3.99;73.02
52745;BME280;38637;49.984;20.426;2023-03-03T11:48:35;99582.44;;;4.07;73.19
52745;BME280;38637;49.984;20.426;2023-03-03T11:51:06;99570.34;;;4.23;72.78
52745;BME280;38637;49.984;20.426;2023-03-03T11:54:02;99575.31;;;4.19;73.51
52745;BME280;38637;49.984;20.426;2023-03-03T11:56:41;99573.63;;;4.25;73.52
52745;BME280;38637;49.984;20.426;2023-03-03T11:59:19;99573.22;;;4.28;73.58
52745;BME280;38637;49.984;20.426;2023-03-03T12:04:53;99577.94;;;4.39;73.32
52745;BME280;38637;49.984;20.426;2023-03-03T12:10:07;99564.06;;;4.29;73.96
52745;BME280;38637;49.984;20.426;2023-03-03T12:12:42;99576.88;;;4.40;73.71
52745;BME280;38637;49.984;20.426;2023-03-03T12:21:09;99573.41;;;4.33;73.90
52745;BME280;38637;49.984;20.426;2023-03-03T12:26:01;99565.47;;;4.38;73.65
52745;BME280;38637;49.984;20.426;2023-03-03T12:28:37;99556.56;;;4.31;72.54
52745;BME280;38637;49.984;20.426;2023-03-03T12:36:47;99547.97;;;4.41;71.64
52745;BME280;38637;49.984;20.426;2023-03-03T12:39:37;99572.31;;;4.41;71.38
52745;BME280;38637;49.984;20.426;2023-03-03T12:45:20;99565.72;;;4.30;71.50
52745;BME280;38637;49.984;20.426;2023-03-03T12:48:00;99551.97;;;4.38;71.65
52745;BME280;38637;49.984;20.426;2023-03-03T12:56:04;99557.84;;;4.22;72.08
52745;BME280;38637;49.984;20.426;2023-03-03T12:59:02;99539.91;;;4.34;71.48
52745;BME280;38637;49.984;20.426;2023-03-03T13:04:18;99540.53;;;4.36;70.59
52745;BME280;38637;49.984;20.426;2023-03-03T13:12:29;99521.22;;;4.32;70.30
52745;BME280;38637;49.984;20.426;2023-03-03T13:15:13;99509.97;;;4.35;69.87
52745;BME280;38637;49.984;20.426;2023-03-03T13:23:09;99526.03;;;4.24;70.30
52745;BME280;38637;49.984;20.426;2023-03-03T13:25:47;99536.22;;;4.22;70.08
52745;BME280;38637;49.984;20.426;2023-03-03T13:30:54;99531.69;;;4.15;70.17
52745;BME280;38637;49.984;20.426;2023-03-03T13:33:25;99537.56;;;4.06;69.09
52745;BME280;38637;49.984;20.426;2023-03-03T13:35:53;99537.19;;;3.96;69.87
52745;BME280;38637;49.984;20.426;2023-03-03T13:38:29;99542.59;;;3.96;69.72
52745;BME280;38637;49.984;20.426;2023-03-03T13:41:05;99549.25;;;3.93;69.66
52745;BME280;38637;49.984;20.426;2023-03-03T13:46:17;99539.94;;;3.82;69.57
52745;BME280;38637;49.984;20.426;2023-03-03T13:59:29;99556.25;;;3.36;71.16
52745;BME280;38637;49.984;20.426;2023-03-03T14:07:42;99554.81;;;3.40;70.84
52745;BME280;38637;49.984;20.426;2023-03-03T14:10:30;99544.44;;;3.37;71.02
52745;BME280;38637;49.984;20.426;2023-03-03T14:13:06;99559.38;;;3.33;70.92
52745;BME280;38637;49.984;20.426;2023-03-03T14:15:39;99549.44;;;3.27;70.83
52745;BME280;38637;49.984;20.426;2023-03-03T14:18:28;99545.28;;;3.24;70.31
52745;BME280;38637;49.984;20.426;2023-03-03T14:21:08;99540.50;;;3.26;70.32
52745;BME280;38637;49.984;20.426;2023-03-03T14:26:56;99544.88;;;3.20;71.08
52745;BME280;38637;49.984;20.426;2023-03-03T14:29:30;99554.44;;;3.16;70.89
52745;BME280;38637;49.984;20.426;2023-03-03T14:31:58;99544.69;;;3.15;71.05
52745;BME280;38637;49.984;20.426;2023-03-03T14:34:29;99541.16;;;3.02;71.49
52745;BME280;38637;49.984;20.426;2023-03-03T14:37:29;99544.28;;;2.92;71.72
52745;BME280;38637;49.984;20.426;2023-03-03T14:40:30;99545.31;;;2.91;71.99
52745;BME280;38637;49.984;20.426;2023-03-03T14:42:59;99549.69;;;2.85;72.16
52745;BME280;38637;49.984;20.426;2023-03-03T14:45:41;99542.81;;;2.69;72.62
52745;BME280;38637;49.984;20.426;2023-03-03T14:51:24;99561.03;;;2.54;74.05
52745;BME280;38637;49.984;20.426;2023-03-03T14:53:36;99562.47;;;2.43;74.62
52745;BME280;38637;49.984;20.426;2023-03-03T14:58:50;99556.22;;;2.29;74.95
52745;BME280;38637;49.984;20.426;2023-03-03T15:01:30;99555.19;;;2.37;74.52
52745;BME280;38637;49.984;20.426;2023-03-03T15:06:43;99537.34;;;2.29;73.44
52745;BME280;38637;49.984;20.426;2023-03-03T15:09:29;99548.16;;;2.36;73.50
52745;BME280;38637;49.984;20.426;2023-03-03T15:11:59;99533.63;;;2.30;73.09
52745;BME280;38637;49.984;20.426;2023-03-03T15:14:41;99540.03;;;2.29;72.22
52745;BME280;38637;49.984;20.426;2023-03-03T15:25:27;99556.63;;;2.26;74.39
52745;BME280;38637;49.984;20.426;2023-03-03T15:33:31;99561.94;;;2.06;74.20
52745;BME280;38637;49.984;20.426;2023-03-03T15:36:38;99546.63;;;2.07;74.32
52745;BME280;38637;49.984;20.426;2023-03-03T15:39:16;99553.44;;;2.03;73.72
52745;BME280;38637;49.984;20.426;2023-03-03T15:41:50;99548.66;;;1.98;74.51
52745;BME280;38637;49.984;20.426;2023-03-03T15:44:25;99558.19;;;2.01;74.32
52745;BME280;38637;49.984;20.426;2023-03-03T15:47:06;99563.59;;;2.01;73.28
52745;BME280;38637;49.984;20.426;2023-03-03T15:55:28;99552.38;;;1.91;74.56
52745;BME280;38637;49.984;20.426;2023-03-03T16:03:25;99560.44;;;1.91;73.96
52745;BME280;38637;49.984;20.426;2023-03-03T16:06:08;99550.06;;;1.88;73.76
52745;BME280;38637;49.984;20.426;2023-03-03T16:09:28;99566.44;;;1.93;73.82
52745;BME280;38637;49.984;20.426;2023-03-03T16:20:32;99589.81;;;1.86;73.47
52745;BME280;38637;49.984;20.426;2023-03-03T16:26:47;99589.41;;;1.89;73.46
52745;BME280;38637;49.984;20.426;2023-03-03T16:29:01;99585.47;;;1.84;73.53
52745;BME280;38637;49.984;20.426;2023-03-03T16:31:52;99582.16;;;1.82;73.48
52745;BME280;38637;49.984;20.426;2023-03-03T16:34:29;99588.34;;;1.83;73.59
52745;BME280;38637;49.984;20.426;2023-03-03T16:37:11;99585.25;;;1.79;73.84
52745;BME280;38637;49.984;20.426;2023-03-03T16:39:55;99588.34;;;1.83;73.87
52745;BME280;38637;49.984;20.426;2023-03-03T16:42:24;99583.19;;;1.81;73.68
52745;BME280;38637;49.984;20.426;2023-03-03T16:53:24;99603.28;;;1.86;73.81